sensor_id;sensor_type;location;lat;lon;timestamp;P1;durP1;ratioP1;P2;durP2;ratioP2
62584;SDS011;48643;51.670;5.808;2023-03-31T00:00:43;7.82;;;2.50;;
62584;SDS011;48643;51.670;5.808;2023-03-31T00:03:12;9.07;;;2.50;;
62584;SDS011;48643;51.670;5.808;2023-03-31T00:05:47;5.93;;;2.10;;
62584;SDS011;48643;51.670;5.808;2023-03-31T00:08:14;7.80;;;2.40;;
62584;SDS011;48643;51.670;5.808;2023-03-31T00:10:43;7.82;;;2.20;;
62584;SDS011;48643;51.670;5.808;2023-03-31T00:13:11;6.32;;;2.28;;
62584;SDS011;48643;51.670;5.808;2023-03-31T00:15:38;6.97;;;2.25;;
62584;SDS011;48643;51.670;5.808;2023-03-31T00:18:06;9.75;;;2.63;;
62584;SDS011;48643;51.670;5.808;2023-03-31T00:20:33;7.15;;;2.47;;
62584;SDS011;48643;51.670;5.808;2023-03-31T00:23:03;8.82;;;2.58;;
62584;SDS011;48643;51.670;5.808;2023-03-31T00:25:39;9.48;;;2.30;;
62584;SDS011;48643;51.670;5.808;2023-03-31T00:28:06;6.55;;;2.20;;
62584;SDS011;48643;51.670;5.808;2023-03-31T00:30:33;8.25;;;2.40;;
62584;SDS011;48643;51.670;5.808;2023-03-31T00:33:00;7.80;;;2.28;;
62584;SDS011;48643;51.670;5.808;2023-03-31T00:35:27;5.20;;;2.10;;
62584;SDS011;48643;51.670;5.808;2023-03-31T00:37:54;8.18;;;2.47;;
62584;SDS011;48643;51.670;5.808;2023-03-31T00:40:23;8.33;;;2.20;;
62584;SDS011;48643;51.670;5.808;2023-03-31T00:42:50;4.57;;;2.17;;
62584;SDS011;48643;51.670;5.808;2023-03-31T00:45:21;10.25;;;2.75;;
62584;SDS011;48643;51.670;5.808;2023-03-31T00:47:51;6.90;;;2.40;;
62584;SDS011;48643;51.670;5.808;2023-03-31T00:50:27;6.55;;;2.10;;
62584;SDS011;48643;51.670;5.808;2023-03-31T00:52:58;9.40;;;2.45;;
62584;SDS011;48643;51.670;5.808;2023-03-31T00:55:30;5.55;;;2.30;;
62584;SDS011;48643;51.670;5.808;2023-03-31T00:58:00;7.47;;;2.20;;
62584;SDS011;48643;51.670;5.808;2023-03-31T01:00:29;7.35;;;2.30;;
62584;SDS011;48643;51.670;5.808;2023-03-31T01:02:57;6.30;;;2.05;;
62584;SDS011;48643;51.670;5.808;2023-03-31T01:05:37;8.55;;;2.30;;
62584;SDS011;48643;51.670;5.808;2023-03-31T01:08:10;7.80;;;2.28;;
62584;SDS011;48643;51.670;5.808;2023-03-31T01:10:42;6.75;;;2.05;;
62584;SDS011;48643;51.670;5.808;2023-03-31T01:13:12;8.23;;;2.30;;
62584;SDS011;48643;51.670;5.808;2023-03-31T01:15:41;8.38;;;2.55;;
62584;SDS011;48643;51.670;5.808;2023-03-31T01:18:08;9.80;;;2.30;;
62584;SDS011;48643;51.670;5.808;2023-03-31T01:29:39;8.38;;;2.15;;
62584;SDS011;48643;51.670;5.808;2023-03-31T01:35:19;4.68;;;2.13;;
62584;SDS011;48643;51.670;5.808;2023-03-31T01:43:25;4.97;;;2.03;;
62584;SDS011;48643;51.670;5.808;2023-03-31T01:46:10;5.72;;;2.05;;
62584;SDS011;48643;51.670;5.808;2023-03-31T01:48:58;5.57;;;2.00;;
62584;SDS011;48643;51.670;5.808;2023-03-31T01:52:08;7.00;;;2.13;;
62584;SDS011;48643;51.670;5.808;2023-03-31T01:54:48;7.22;;;1.83;;
62584;SDS011;48643;51.670;5.808;2023-03-31T02:00:09;7.80;;;2.10;;
62584;SDS011;48643;51.670;5.808;2023-03-31T02:02:44;8.43;;;2.20;;
62584;SDS011;48643;51.670;5.808;2023-03-31T02:05:19;6.95;;;2.20;;
62584;SDS011;48643;51.670;5.808;2023-03-31T02:07:52;8.45;;;2.10;;
62584;SDS011;48643;51.670;5.808;2023-03-31T02:10:21;7.07;;;2.30;;
62584;SDS011;48643;51.670;5.808;2023-03-31T02:12:50;7.60;;;2.13;;
62584;SDS011;48643;51.670;5.808;2023-03-31T02:15:29;7.57;;;2.15;;
62584;SDS011;48643;51.670;5.808;2023-03-31T02:18:00;9.63;;;2.20;;
62584;SDS011;48643;51.670;5.808;2023-03-31T02:20:31;5.60;;;2.10;;
62584;SDS011;48643;51.670;5.808;2023-03-31T02:22:58;6.25;;;2.15;;
62584;SDS011;48643;51.670;5.808;2023-03-31T02:25:31;6.35;;;2.10;;
62584;SDS011;48643;51.670;5.808;2023-03-31T02:28:03;8.32;;;2.05;;
62584;SDS011;48643;51.670;5.808;2023-03-31T02:30:45;7.85;;;2.08;;
62584;SDS011;48643;51.670;5.808;2023-03-31T02:33:21;9.10;;;2.40;;
62584;SDS011;48643;51.670;5.808;2023-03-31T02:35:48;6.28;;;2.05;;
62584;SDS011;48643;51.670;5.808;2023-03-31T02:38:15;10.75;;;2.50;;
62584;SDS011;48643;51.670;5.808;2023-03-31T02:40:42;8.95;;;2.22;;
62584;SDS011;48643;51.670;5.808;2023-03-31T02:43:09;6.03;;;2.03;;
62584;SDS011;48643;51.670;5.808;2023-03-31T02:45:41;7.32;;;2.30;;
62584;SDS011;48643;51.670;5.808;2023-03-31T02:48:14;9.27;;;2.30;;
62584;SDS011;48643;51.670;5.808;2023-03-31T02:56:43;7.78;;;2.40;;
62584;SDS011;48643;51.670;5.808;2023-03-31T03:01:52;8.82;;;2.47;;
62584;SDS011;48643;51.670;5.808;2023-03-31T03:10:59;8.77;;;2.17;;
62584;SDS011;48643;51.670;5.808;2023-03-31T03:16:12;7.78;;;2.35;;
62584;SDS011;48643;51.670;5.808;2023-03-31T03:18:51;8.43;;;2.30;;
62584;SDS011;48643;51.670;5.808;2023-03-31T03:21:25;7.38;;;2.20;;
62584;SDS011;48643;51.670;5.808;2023-03-31T03:23:53;8.10;;;2.50;;
62584;SDS011;48643;51.670;5.808;2023-03-31T03:26:20;7.88;;;2.28;;
62584;SDS011;48643;51.670;5.808;2023-03-31T03:28:49;6.82;;;2.20;;
62584;SDS011;48643;51.670;5.808;2023-03-31T03:31:16;8.68;;;2.30;;
62584;SDS011;48643;51.670;5.808;2023-03-31T03:33:44;8.75;;;2.35;;
62584;SDS011;48643;51.670;5.808;2023-03-31T03:36:11;9.38;;;2.10;;
62584;SDS011;48643;51.670;5.808;2023-03-31T03:38:38;8.07;;;2.20;;
62584;SDS011;48643;51.670;5.808;2023-03-31T03:41:05;6.75;;;2.22;;
62584;SDS011;48643;51.670;5.808;2023-03-31T03:43:32;6.72;;;1.98;;
62584;SDS011;48643;51.670;5.808;2023-03-31T03:45:59;7.85;;;2.35;;
62584;SDS011;48643;51.670;5.808;2023-03-31T03:48:26;7.43;;;2.38;;
62584;SDS011;48643;51.670;5.808;2023-03-31T03:50:53;8.25;;;2.17;;
62584;SDS011;48643;51.670;5.808;2023-03-31T03:53:20;7.53;;;2.30;;
62584;SDS011;48643;51.670;5.808;2023-03-31T03:55:47;8.90;;;2.30;;
62584;SDS011;48643;51.670;5.808;2023-03-31T03:58:16;11.32;;;2.20;;
62584;SDS011;48643;51.670;5.808;2023-03-31T04:00:45;11.30;;;2.20;;
62584;SDS011;48643;51.670;5.808;2023-03-31T04:03:12;7.10;;;1.92;;
62584;SDS011;48643;51.670;5.808;2023-03-31T04:05:40;6.63;;;2.03;;
62584;SDS011;48643;51.670;5.808;2023-03-31T04:08:07;9.68;;;2.25;;
62584;SDS011;48643;51.670;5.808;2023-03-31T04:10:34;8.52;;;2.08;;
62584;SDS011;48643;51.670;5.808;2023-03-31T04:13:01;11.23;;;2.50;;
62584;SDS011;48643;51.670;5.808;2023-03-31T04:15:28;5.13;;;1.77;;
62584;SDS011;48643;51.670;5.808;2023-03-31T04:17:55;5.05;;;1.77;;
62584;SDS011;48643;51.670;5.808;2023-03-31T04:20:23;6.65;;;2.10;;
62584;SDS011;48643;51.670;5.808;2023-03-31T04:22:53;6.82;;;2.08;;
62584;SDS011;48643;51.670;5.808;2023-03-31T04:25:20;10.30;;;2.28;;
62584;SDS011;48643;51.670;5.808;2023-03-31T04:27:51;11.27;;;2.20;;
62584;SDS011;48643;51.670;5.808;2023-03-31T04:30:21;8.82;;;2.22;;
62584;SDS011;48643;51.670;5.808;2023-03-31T04:33:00;9.02;;;2.35;;
62584;SDS011;48643;51.670;5.808;2023-03-31T04:35:30;9.45;;;2.40;;
62584;SDS011;48643;51.670;5.808;2023-03-31T04:38:15;9.15;;;2.33;;
62584;SDS011;48643;51.670;5.808;2023-03-31T04:40:47;6.50;;;2.20;;
62584;SDS011;48643;51.670;5.808;2023-03-31T04:43:15;9.80;;;2.33;;
62584;SDS011;48643;51.670;5.808;2023-03-31T04:45:43;7.13;;;2.08;;
62584;SDS011;48643;51.670;5.808;2023-03-31T04:48:10;6.50;;;1.92;;
62584;SDS011;48643;51.670;5.808;2023-03-31T04:50:37;8.20;;;2.05;;
62584;SDS011;48643;51.670;5.808;2023-03-31T04:53:04;6.90;;;1.90;;
62584;SDS011;48643;51.670;5.808;2023-03-31T04:55:31;6.68;;;1.90;;
62584;SDS011;48643;51.670;5.808;2023-03-31T04:57:59;6.63;;;2.10;;
62584;SDS011;48643;51.670;5.808;2023-03-31T05:00:26;6.75;;;2.30;;
62584;SDS011;48643;51.670;5.808;2023-03-31T05:02:54;6.85;;;1.92;;
62584;SDS011;48643;51.670;5.808;2023-03-31T05:05:21;13.10;;;2.40;;
62584;SDS011;48643;51.670;5.808;2023-03-31T05:07:48;11.02;;;2.10;;
62584;SDS011;48643;51.670;5.808;2023-03-31T05:10:15;5.47;;;1.90;;
62584;SDS011;48643;51.670;5.808;2023-03-31T05:12:42;6.55;;;2.00;;
62584;SDS011;48643;51.670;5.808;2023-03-31T05:15:09;7.57;;;2.13;;
62584;SDS011;48643;51.670;5.808;2023-03-31T05:17:36;5.60;;;2.00;;
62584;SDS011;48643;51.670;5.808;2023-03-31T05:20:03;7.43;;;2.20;;
62584;SDS011;48643;51.670;5.808;2023-03-31T05:22:35;5.38;;;1.85;;
62584;SDS011;48643;51.670;5.808;2023-03-31T05:25:03;6.30;;;2.00;;
62584;SDS011;48643;51.670;5.808;2023-03-31T05:27:32;6.45;;;1.80;;
62584;SDS011;48643;51.670;5.808;2023-03-31T05:30:00;4.68;;;1.90;;
62584;SDS011;48643;51.670;5.808;2023-03-31T05:32:28;6.80;;;2.08;;
62584;SDS011;48643;51.670;5.808;2023-03-31T05:34:55;8.35;;;1.90;;
62584;SDS011;48643;51.670;5.808;2023-03-31T05:37:23;6.38;;;2.03;;
62584;SDS011;48643;51.670;5.808;2023-03-31T05:39:51;7.13;;;1.88;;
62584;SDS011;48643;51.670;5.808;2023-03-31T05:42:18;6.35;;;2.10;;
62584;SDS011;48643;51.670;5.808;2023-03-31T05:44:46;11.43;;;2.20;;
62584;SDS011;48643;51.670;5.808;2023-03-31T05:47:13;8.43;;;2.25;;
62584;SDS011;48643;51.670;5.808;2023-03-31T05:49:40;7.75;;;2.03;;
62584;SDS011;48643;51.670;5.808;2023-03-31T05:52:07;7.13;;;2.08;;
62584;SDS011;48643;51.670;5.808;2023-03-31T05:54:34;9.02;;;2.22;;
62584;SDS011;48643;51.670;5.808;2023-03-31T05:57:02;5.97;;;1.75;;
62584;SDS011;48643;51.670;5.808;2023-03-31T05:59:29;7.82;;;2.10;;
62584;SDS011;48643;51.670;5.808;2023-03-31T06:01:56;8.43;;;2.17;;
62584;SDS011;48643;51.670;5.808;2023-03-31T06:04:23;7.10;;;1.92;;
62584;SDS011;48643;51.670;5.808;2023-03-31T06:06:50;6.05;;;1.80;;
62584;SDS011;48643;51.670;5.808;2023-03-31T06:09:19;4.07;;;1.57;;
62584;SDS011;48643;51.670;5.808;2023-03-31T06:11:46;5.47;;;1.90;;
62584;SDS011;48643;51.670;5.808;2023-03-31T06:14:15;6.32;;;1.60;;
62584;SDS011;48643;51.670;5.808;2023-03-31T06:16:42;6.25;;;1.80;;
62584;SDS011;48643;51.670;5.808;2023-03-31T06:19:09;6.05;;;1.60;;
62584;SDS011;48643;51.670;5.808;2023-03-31T06:21:36;7.03;;;1.90;;
62584;SDS011;48643;51.670;5.808;2023-03-31T06:24:03;7.10;;;1.85;;
62584;SDS011;48643;51.670;5.808;2023-03-31T06:26:30;5.32;;;1.60;;
62584;SDS011;48643;51.670;5.808;2023-03-31T06:28:56;9.75;;;2.20;;
62584;SDS011;48643;51.670;5.808;2023-03-31T06:31:23;8.73;;;1.70;;
62584;SDS011;48643;51.670;5.808;2023-03-31T06:33:50;5.43;;;1.80;;
62584;SDS011;48643;51.670;5.808;2023-03-31T06:36:19;8.38;;;2.00;;
62584;SDS011;48643;51.670;5.808;2023-03-31T06:38:50;8.00;;;1.98;;
62584;SDS011;48643;51.670;5.808;2023-03-31T06:41:17;7.25;;;1.80;;
62584;SDS011;48643;51.670;5.808;2023-03-31T06:43:46;9.05;;;2.40;;
62584;SDS011;48643;51.670;5.808;2023-03-31T06:46:13;5.45;;;1.70;;
62584;SDS011;48643;51.670;5.808;2023-03-31T06:48:40;6.32;;;1.80;;
62584;SDS011;48643;51.670;5.808;2023-03-31T06:51:07;6.10;;;1.90;;
62584;SDS011;48643;51.670;5.808;2023-03-31T06:53:35;7.75;;;2.05;;
62584;SDS011;48643;51.670;5.808;2023-03-31T06:56:02;7.72;;;1.90;;
62584;SDS011;48643;51.670;5.808;2023-03-31T06:58:30;10.13;;;2.10;;
62584;SDS011;48643;51.670;5.808;2023-03-31T07:00:57;3.50;;;1.60;;
62584;SDS011;48643;51.670;5.808;2023-03-31T07:03:24;5.88;;;1.95;;
62584;SDS011;48643;51.670;5.808;2023-03-31T07:05:51;6.95;;;1.90;;
62584;SDS011;48643;51.670;5.808;2023-03-31T07:08:21;6.30;;;1.95;;
62584;SDS011;48643;51.670;5.808;2023-03-31T07:10:49;6.55;;;1.83;;
62584;SDS011;48643;51.670;5.808;2023-03-31T07:13:19;5.30;;;1.80;;
62584;SDS011;48643;51.670;5.808;2023-03-31T07:15:46;8.23;;;2.00;;
62584;SDS011;48643;51.670;5.808;2023-03-31T07:18:15;4.53;;;2.00;;
62584;SDS011;48643;51.670;5.808;2023-03-31T07:20:42;7.68;;;1.90;;
62584;SDS011;48643;51.670;5.808;2023-03-31T07:23:09;3.45;;;1.52;;
62584;SDS011;48643;51.670;5.808;2023-03-31T07:25:36;4.63;;;1.65;;
62584;SDS011;48643;51.670;5.808;2023-03-31T07:28:03;6.68;;;1.92;;
62584;SDS011;48643;51.670;5.808;2023-03-31T07:30:31;6.35;;;1.75;;
62584;SDS011;48643;51.670;5.808;2023-03-31T07:32:58;5.32;;;2.20;;
62584;SDS011;48643;51.670;5.808;2023-03-31T07:35:25;4.65;;;1.88;;
62584;SDS011;48643;51.670;5.808;2023-03-31T07:37:56;7.35;;;1.90;;
62584;SDS011;48643;51.670;5.808;2023-03-31T07:40:24;9.15;;;1.85;;
62584;SDS011;48643;51.670;5.808;2023-03-31T07:42:52;6.40;;;1.83;;
62584;SDS011;48643;51.670;5.808;2023-03-31T07:45:20;6.38;;;2.10;;
62584;SDS011;48643;51.670;5.808;2023-03-31T07:47:49;6.17;;;2.00;;
62584;SDS011;48643;51.670;5.808;2023-03-31T07:50:22;5.75;;;1.85;;
62584;SDS011;48643;51.670;5.808;2023-03-31T07:52:51;6.75;;;1.95;;
62584;SDS011;48643;51.670;5.808;2023-03-31T07:55:18;6.63;;;2.17;;
62584;SDS011;48643;51.670;5.808;2023-03-31T07:57:45;6.90;;;2.20;;
62584;SDS011;48643;51.670;5.808;2023-03-31T08:00:13;7.28;;;1.80;;
62584;SDS011;48643;51.670;5.808;2023-03-31T08:02:42;6.45;;;1.98;;
62584;SDS011;48643;51.670;5.808;2023-03-31T08:05:10;7.30;;;1.80;;
62584;SDS011;48643;51.670;5.808;2023-03-31T08:07:39;6.15;;;1.95;;
62584;SDS011;48643;51.670;5.808;2023-03-31T08:10:08;9.68;;;1.95;;
62584;SDS011;48643;51.670;5.808;2023-03-31T08:12:37;4.57;;;1.80;;
62584;SDS011;48643;51.670;5.808;2023-03-31T08:15:04;7.85;;;2.05;;
62584;SDS011;48643;51.670;5.808;2023-03-31T08:17:31;7.38;;;2.03;;
62584;SDS011;48643;51.670;5.808;2023-03-31T08:19:58;10.10;;;2.03;;
62584;SDS011;48643;51.670;5.808;2023-03-31T08:22:31;6.70;;;2.00;;
62584;SDS011;48643;51.670;5.808;2023-03-31T08:24:58;10.25;;;2.20;;
62584;SDS011;48643;51.670;5.808;2023-03-31T08:27:25;6.00;;;1.85;;
62584;SDS011;48643;51.670;5.808;2023-03-31T08:29:51;7.00;;;2.33;;
62584;SDS011;48643;51.670;5.808;2023-03-31T08:32:22;5.55;;;1.92;;
62584;SDS011;48643;51.670;5.808;2023-03-31T08:34:49;6.90;;;2.00;;
62584;SDS011;48643;51.670;5.808;2023-03-31T08:37:16;7.07;;;2.10;;
62584;SDS011;48643;51.670;5.808;2023-03-31T08:39:43;5.57;;;2.10;;
62584;SDS011;48643;51.670;5.808;2023-03-31T08:42:19;13.60;;;2.40;;
62584;SDS011;48643;51.670;5.808;2023-03-31T08:44:56;11.55;;;2.50;;
62584;SDS011;48643;51.670;5.808;2023-03-31T08:47:29;14.50;;;2.72;;
62584;SDS011;48643;51.670;5.808;2023-03-31T08:49:58;25.08;;;3.45;;
62584;SDS011;48643;51.670;5.808;2023-03-31T08:52:30;19.30;;;3.13;;
62584;SDS011;48643;51.670;5.808;2023-03-31T08:55:09;22.52;;;3.03;;
62584;SDS011;48643;51.670;5.808;2023-03-31T09:00:16;16.92;;;2.55;;
62584;SDS011;48643;51.670;5.808;2023-03-31T09:02:49;11.52;;;2.63;;
62584;SDS011;48643;51.670;5.808;2023-03-31T09:19:07;10.27;;;2.72;;
62584;SDS011;48643;51.670;5.808;2023-03-31T09:21:43;9.25;;;2.50;;
62584;SDS011;48643;51.670;5.808;2023-03-31T09:24:14;15.02;;;2.95;;
62584;SDS011;48643;51.670;5.808;2023-03-31T09:26:48;13.60;;;3.10;;
62584;SDS011;48643;51.670;5.808;2023-03-31T09:30:00;11.52;;;2.45;;
62584;SDS011;48643;51.670;5.808;2023-03-31T09:32:36;13.35;;;3.10;;
62584;SDS011;48643;51.670;5.808;2023-03-31T09:35:14;15.18;;;3.55;;
62584;SDS011;48643;51.670;5.808;2023-03-31T09:37:43;12.68;;;3.15;;
62584;SDS011;48643;51.670;5.808;2023-03-31T09:40:14;10.23;;;2.85;;
62584;SDS011;48643;51.670;5.808;2023-03-31T09:42:46;13.68;;;3.00;;
62584;SDS011;48643;51.670;5.808;2023-03-31T09:45:21;20.23;;;3.38;;
62584;SDS011;48643;51.670;5.808;2023-03-31T09:47:56;13.77;;;3.05;;
62584;SDS011;48643;51.670;5.808;2023-03-31T09:50:26;15.77;;;3.28;;
62584;SDS011;48643;51.670;5.808;2023-03-31T09:52:56;14.20;;;3.17;;
62584;SDS011;48643;51.670;5.808;2023-03-31T09:58:12;15.90;;;2.90;;
62584;SDS011;48643;51.670;5.808;2023-03-31T10:00:41;14.38;;;2.83;;
62584;SDS011;48643;51.670;5.808;2023-03-31T10:03:11;13.47;;;2.90;;
62584;SDS011;48643;51.670;5.808;2023-03-31T10:05:47;13.65;;;3.13;;
62584;SDS011;48643;51.670;5.808;2023-03-31T10:16:05;13.07;;;3.08;;
62584;SDS011;48643;51.670;5.808;2023-03-31T10:18:39;14.60;;;3.22;;
62584;SDS011;48643;51.670;5.808;2023-03-31T10:23:47;17.77;;;2.85;;
62584;SDS011;48643;51.670;5.808;2023-03-31T10:26:19;13.35;;;2.85;;
62584;SDS011;48643;51.670;5.808;2023-03-31T10:28:49;14.77;;;3.05;;
62584;SDS011;48643;51.670;5.808;2023-03-31T10:31:18;16.88;;;3.20;;
62584;SDS011;48643;51.670;5.808;2023-03-31T10:33:48;14.32;;;3.00;;
62584;SDS011;48643;51.670;5.808;2023-03-31T10:36:23;11.80;;;3.25;;
62584;SDS011;48643;51.670;5.808;2023-03-31T10:38:52;14.63;;;2.88;;
62584;SDS011;48643;51.670;5.808;2023-03-31T10:41:28;11.32;;;2.80;;
62584;SDS011;48643;51.670;5.808;2023-03-31T10:43:57;12.88;;;3.13;;
62584;SDS011;48643;51.670;5.808;2023-03-31T10:49:15;12.85;;;2.95;;
62584;SDS011;48643;51.670;5.808;2023-03-31T10:51:54;14.43;;;3.58;;
62584;SDS011;48643;51.670;5.808;2023-03-31T10:54:23;11.20;;;2.78;;
62584;SDS011;48643;51.670;5.808;2023-03-31T10:56:53;12.85;;;2.70;;
62584;SDS011;48643;51.670;5.808;2023-03-31T10:59:40;12.90;;;2.90;;
62584;SDS011;48643;51.670;5.808;2023-03-31T11:02:35;11.73;;;3.00;;
62584;SDS011;48643;51.670;5.808;2023-03-31T11:16:28;9.77;;;2.60;;
62584;SDS011;48643;51.670;5.808;2023-03-31T11:30:49;11.23;;;2.83;;
62584;SDS011;48643;51.670;5.808;2023-03-31T11:36:00;12.38;;;2.67;;
62584;SDS011;48643;51.670;5.808;2023-03-31T11:38:53;8.18;;;2.58;;
62584;SDS011;48643;51.670;5.808;2023-03-31T11:44:09;14.00;;;2.95;;
62584;SDS011;48643;51.670;5.808;2023-03-31T11:54:07;9.35;;;2.70;;
62584;SDS011;48643;51.670;5.808;2023-03-31T11:56:40;12.65;;;2.97;;
62584;SDS011;48643;51.670;5.808;2023-03-31T11:59:08;13.32;;;3.10;;
62584;SDS011;48643;51.670;5.808;2023-03-31T12:04:22;14.65;;;2.80;;
62584;SDS011;48643;51.670;5.808;2023-03-31T12:06:57;15.60;;;3.10;;
62584;SDS011;48643;51.670;5.808;2023-03-31T12:09:49;15.93;;;2.90;;
62584;SDS011;48643;51.670;5.808;2023-03-31T12:12:19;12.20;;;2.55;;
62584;SDS011;48643;51.670;5.808;2023-03-31T12:14:53;15.13;;;3.15;;
62584;SDS011;48643;51.670;5.808;2023-03-31T12:17:23;11.43;;;2.70;;
62584;SDS011;48643;51.670;5.808;2023-03-31T12:19:53;11.93;;;2.80;;
62584;SDS011;48643;51.670;5.808;2023-03-31T12:22:40;15.75;;;3.00;;
62584;SDS011;48643;51.670;5.808;2023-03-31T12:25:13;14.55;;;3.17;;
62584;SDS011;48643;51.670;5.808;2023-03-31T12:27:42;12.20;;;2.67;;
62584;SDS011;48643;51.670;5.808;2023-03-31T12:30:34;12.25;;;2.78;;
62584;SDS011;48643;51.670;5.808;2023-03-31T12:35:56;13.18;;;3.08;;
62584;SDS011;48643;51.670;5.808;2023-03-31T12:53:14;13.00;;;3.00;;
62584;SDS011;48643;51.670;5.808;2023-03-31T12:56:01;9.45;;;2.45;;
62584;SDS011;48643;51.670;5.808;2023-03-31T13:01:03;11.40;;;2.60;;
62584;SDS011;48643;51.670;5.808;2023-03-31T13:06:57;7.35;;;2.00;;
62584;SDS011;48643;51.670;5.808;2023-03-31T13:11:40;10.60;;;2.80;;
62584;SDS011;48643;51.670;5.808;2023-03-31T13:14:16;11.55;;;2.40;;
62584;SDS011;48643;51.670;5.808;2023-03-31T13:16:46;9.35;;;2.30;;
62584;SDS011;48643;51.670;5.808;2023-03-31T13:19:25;11.48;;;2.53;;
62584;SDS011;48643;51.670;5.808;2023-03-31T13:22:00;15.65;;;3.17;;
62584;SDS011;48643;51.670;5.808;2023-03-31T13:24:28;20.23;;;3.22;;
62584;SDS011;48643;51.670;5.808;2023-03-31T13:27:02;20.08;;;3.35;;
62584;SDS011;48643;51.670;5.808;2023-03-31T13:29:54;20.48;;;3.45;;
62584;SDS011;48643;51.670;5.808;2023-03-31T13:35:00;13.38;;;2.63;;
62584;SDS011;48643;51.670;5.808;2023-03-31T13:54:42;11.82;;;2.55;;
62584;SDS011;48643;51.670;5.808;2023-03-31T14:00:37;7.65;;;2.10;;
62584;SDS011;48643;51.670;5.808;2023-03-31T14:08:10;10.95;;;2.20;;
62584;SDS011;48643;51.670;5.808;2023-03-31T14:10:40;11.68;;;2.20;;
62584;SDS011;48643;51.670;5.808;2023-03-31T14:13:15;10.38;;;1.92;;
62584;SDS011;48643;51.670;5.808;2023-03-31T14:15:46;11.32;;;1.95;;
62584;SDS011;48643;51.670;5.808;2023-03-31T14:18:19;8.48;;;2.00;;
62584;SDS011;48643;51.670;5.808;2023-03-31T14:23:28;7.60;;;1.98;;
62584;SDS011;48643;51.670;5.808;2023-03-31T14:26:08;8.27;;;1.92;;
62584;SDS011;48643;51.670;5.808;2023-03-31T14:28:44;8.18;;;2.20;;
62584;SDS011;48643;51.670;5.808;2023-03-31T14:31:37;12.50;;;2.30;;
62584;SDS011;48643;51.670;5.808;2023-03-31T14:36:59;8.20;;;1.95;;
62584;SDS011;48643;51.670;5.808;2023-03-31T14:39:31;4.72;;;1.85;;
62584;SDS011;48643;51.670;5.808;2023-03-31T14:42:04;8.85;;;2.22;;
62584;SDS011;48643;51.670;5.808;2023-03-31T14:44:35;6.97;;;2.00;;
62584;SDS011;48643;51.670;5.808;2023-03-31T14:47:04;8.88;;;1.90;;
62584;SDS011;48643;51.670;5.808;2023-03-31T14:49:35;7.63;;;2.05;;
62584;SDS011;48643;51.670;5.808;2023-03-31T14:52:12;8.18;;;2.25;;
62584;SDS011;48643;51.670;5.808;2023-03-31T14:54:44;7.85;;;1.90;;
62584;SDS011;48643;51.670;5.808;2023-03-31T15:00:00;7.65;;;3.92;;
62584;SDS011;48643;51.670;5.808;2023-03-31T15:02:33;8.60;;;1.77;;
62584;SDS011;48643;51.670;5.808;2023-03-31T15:05:03;6.65;;;1.73;;
62584;SDS011;48643;51.670;5.808;2023-03-31T15:07:32;7.32;;;2.78;;
62584;SDS011;48643;51.670;5.808;2023-03-31T15:10:01;7.13;;;3.42;;
62584;SDS011;48643;51.670;5.808;2023-03-31T15:12:28;7.05;;;3.53;;
62584;SDS011;48643;51.670;5.808;2023-03-31T15:14:57;7.15;;;3.50;;
62584;SDS011;48643;51.670;5.808;2023-03-31T15:17:30;10.15;;;3.50;;
62584;SDS011;48643;51.670;5.808;2023-03-31T15:20:00;7.07;;;3.50;;
62584;SDS011;48643;51.670;5.808;2023-03-31T15:22:43;4.53;;;1.38;;
62584;SDS011;48643;51.670;5.808;2023-03-31T15:25:12;3.92;;;1.67;;
62584;SDS011;48643;51.670;5.808;2023-03-31T15:27:42;7.18;;;1.70;;
62584;SDS011;48643;51.670;5.808;2023-03-31T15:30:22;3.40;;;1.60;;
62584;SDS011;48643;51.670;5.808;2023-03-31T15:32:50;6.65;;;1.63;;
62584;SDS011;48643;51.670;5.808;2023-03-31T15:37:57;5.55;;;1.90;;
62584;SDS011;48643;51.670;5.808;2023-03-31T15:40:30;5.85;;;1.70;;
62584;SDS011;48643;51.670;5.808;2023-03-31T15:45:58;4.05;;;1.33;;
62584;SDS011;48643;51.670;5.808;2023-03-31T15:48:27;6.00;;;1.37;;
62584;SDS011;48643;51.670;5.808;2023-03-31T15:51:06;1.77;;;0.80;;
62584;SDS011;48643;51.670;5.808;2023-03-31T15:53:43;5.03;;;1.25;;
62584;SDS011;48643;51.670;5.808;2023-03-31T15:58:56;4.00;;;1.00;;
62584;SDS011;48643;51.670;5.808;2023-03-31T16:01:36;4.72;;;1.17;;
62584;SDS011;48643;51.670;5.808;2023-03-31T16:04:10;2.47;;;0.88;;
62584;SDS011;48643;51.670;5.808;2023-03-31T16:06:42;3.05;;;1.23;;
62584;SDS011;48643;51.670;5.808;2023-03-31T16:09:20;2.83;;;1.17;;
62584;SDS011;48643;51.670;5.808;2023-03-31T16:11:54;4.13;;;1.20;;
62584;SDS011;48643;51.670;5.808;2023-03-31T16:14:30;2.28;;;0.90;;
62584;SDS011;48643;51.670;5.808;2023-03-31T16:17:00;2.03;;;0.82;;
62584;SDS011;48643;51.670;5.808;2023-03-31T16:19:30;2.78;;;0.90;;
62584;SDS011;48643;51.670;5.808;2023-03-31T16:22:09;3.13;;;0.95;;
62584;SDS011;48643;51.670;5.808;2023-03-31T16:24:39;2.92;;;1.30;;
62584;SDS011;48643;51.670;5.808;2023-03-31T16:27:06;3.28;;;0.95;;
62584;SDS011;48643;51.670;5.808;2023-03-31T16:29:34;2.80;;;1.10;;
62584;SDS011;48643;51.670;5.808;2023-03-31T16:32:11;2.53;;;1.20;;
62584;SDS011;48643;51.670;5.808;2023-03-31T16:34:58;1.90;;;0.95;;
62584;SDS011;48643;51.670;5.808;2023-03-31T16:37:27;2.03;;;0.95;;
62584;SDS011;48643;51.670;5.808;2023-03-31T16:39:54;2.83;;;1.08;;
62584;SDS011;48643;51.670;5.808;2023-03-31T16:42:21;2.88;;;1.08;;
62584;SDS011;48643;51.670;5.808;2023-03-31T16:44:48;3.63;;;1.00;;
62584;SDS011;48643;51.670;5.808;2023-03-31T16:47:35;2.50;;;1.20;;
62584;SDS011;48643;51.670;5.808;2023-03-31T16:50:02;3.10;;;1.10;;
62584;SDS011;48643;51.670;5.808;2023-03-31T16:52:32;2.45;;;1.20;;
62584;SDS011;48643;51.670;5.808;2023-03-31T16:54:59;3.38;;;1.10;;
62584;SDS011;48643;51.670;5.808;2023-03-31T16:57:27;3.63;;;1.75;;
62584;SDS011;48643;51.670;5.808;2023-03-31T16:59:53;3.10;;;1.60;;
62584;SDS011;48643;51.670;5.808;2023-03-31T17:02:24;2.85;;;1.60;;
62584;SDS011;48643;51.670;5.808;2023-03-31T17:04:51;3.08;;;1.45;;
62584;SDS011;48643;51.670;5.808;2023-03-31T17:07:38;4.05;;;1.40;;
62584;SDS011;48643;51.670;5.808;2023-03-31T17:10:06;4.13;;;1.60;;
62584;SDS011;48643;51.670;5.808;2023-03-31T17:12:33;2.67;;;1.30;;
62584;SDS011;48643;51.670;5.808;2023-03-31T17:15:00;3.63;;;1.30;;
62584;SDS011;48643;51.670;5.808;2023-03-31T17:17:27;4.35;;;1.77;;
62584;SDS011;48643;51.670;5.808;2023-03-31T17:19:55;3.88;;;1.17;;
62584;SDS011;48643;51.670;5.808;2023-03-31T17:22:22;3.40;;;1.50;;
62584;SDS011;48643;51.670;5.808;2023-03-31T17:24:49;3.95;;;1.38;;
62584;SDS011;48643;51.670;5.808;2023-03-31T17:27:23;3.75;;;1.45;;
62584;SDS011;48643;51.670;5.808;2023-03-31T17:29:50;2.22;;;1.30;;
62584;SDS011;48643;51.670;5.808;2023-03-31T17:32:18;5.15;;;1.60;;
62584;SDS011;48643;51.670;5.808;2023-03-31T17:34:45;4.55;;;1.50;;
62584;SDS011;48643;51.670;5.808;2023-03-31T17:37:16;6.55;;;1.50;;
62584;SDS011;48643;51.670;5.808;2023-03-31T17:39:43;5.18;;;1.30;;
62584;SDS011;48643;51.670;5.808;2023-03-31T17:42:11;4.53;;;1.40;;
62584;SDS011;48643;51.670;5.808;2023-03-31T17:44:38;3.47;;;1.30;;
62584;SDS011;48643;51.670;5.808;2023-03-31T17:47:06;3.03;;;1.50;;
62584;SDS011;48643;51.670;5.808;2023-03-31T17:49:33;4.93;;;1.45;;
62584;SDS011;48643;51.670;5.808;2023-03-31T17:52:00;4.05;;;1.20;;
62584;SDS011;48643;51.670;5.808;2023-03-31T17:54:27;4.82;;;1.40;;
62584;SDS011;48643;51.670;5.808;2023-03-31T17:56:53;8.25;;;1.60;;
62584;SDS011;48643;51.670;5.808;2023-03-31T17:59:20;4.18;;;1.30;;
62584;SDS011;48643;51.670;5.808;2023-03-31T18:01:47;2.95;;;1.40;;
62584;SDS011;48643;51.670;5.808;2023-03-31T18:04:14;5.13;;;1.50;;
62584;SDS011;48643;51.670;5.808;2023-03-31T18:06:41;2.65;;;1.45;;